Flugplatz Falkenberg-Lönnewitz

Für EDUF sind keine METAR/TAF Berichte vorhanden.
Es werden die Flugwettermeldungen vom Flugplatz Holzdorf Airport in 24 km Entfernung angezeigt.

Bericht für ETSH

vom 30.09. um 22:20 UTC

kein Wind

Sichtweite 10 km oder mehr

flacher Bodennebel

Temperatur 5.0°C

Taupunkt 4.0°C

Luftfeuchtigkeit 93%

Luftdruck 1011 hPa

ETSH 302220Z 00000KT 9999 MIFG 05/04 Q1011 BLU+
Keine Prognose (TAF) verfügbar.
Impressum